createdAt,value
2018-03-14T00:01:16.007Z,6.37
2018-03-14T00:03:44.249Z,6.83
2018-03-14T00:06:12.466Z,6.57
2018-03-14T00:08:40.700Z,7.20
2018-03-14T00:11:09.688Z,6.47
2018-03-14T00:13:38.697Z,7.17
2018-03-14T00:16:07.803Z,7.53
2018-03-14T00:18:36.041Z,6.33
2018-03-14T00:21:04.260Z,7.43
2018-03-14T00:23:32.504Z,6.07
2018-03-14T00:26:01.496Z,7.27
2018-03-14T00:28:30.492Z,6.07
2018-03-14T00:30:59.484Z,6.23
2018-03-14T00:33:28.486Z,5.53
2018-03-14T00:35:56.707Z,8.67
2018-03-14T00:38:24.940Z,6.37
2018-03-14T00:40:53.159Z,7.77
2018-03-14T00:43:21.384Z,6.93
2018-03-14T00:45:49.599Z,7.90
2018-03-14T00:48:17.836Z,8.20
2018-03-14T00:50:46.062Z,6.13
2018-03-14T00:53:14.292Z,9.43
2018-03-14T00:55:42.512Z,9.97
2018-03-14T00:58:10.760Z,5.10
2018-03-14T01:00:38.990Z,5.53
2018-03-14T01:03:08.264Z,6.13
2018-03-14T01:05:36.532Z,9.93
2018-03-14T01:08:04.750Z,6.33
2018-03-14T01:10:32.985Z,5.93
2018-03-14T01:13:01.210Z,5.70
2018-03-14T01:15:29.449Z,6.80
2018-03-14T01:17:58.437Z,5.33
2018-03-14T01:20:27.437Z,6.67
2018-03-14T01:22:56.423Z,5.87
2018-03-14T01:25:25.423Z,7.93
2018-03-14T01:27:53.640Z,5.53
2018-03-14T01:30:22.258Z,7.20
2018-03-14T01:32:50.463Z,6.47
2018-03-14T01:35:18.701Z,6.43
2018-03-14T01:37:46.921Z,8.03
2018-03-14T01:40:15.160Z,6.73
2018-03-14T01:42:44.146Z,6.53
2018-03-14T01:45:13.148Z,6.57
2018-03-14T01:47:42.133Z,5.67
2018-03-14T01:50:11.140Z,7.87
2018-03-14T01:52:39.357Z,8.23
2018-03-14T01:55:07.595Z,7.80
2018-03-14T01:57:35.811Z,7.27
2018-03-14T02:00:04.810Z,7.73
2018-03-14T04:10:54.845Z,7.77
2018-03-14T04:13:23.084Z,10.87
2018-03-14T04:15:51.312Z,8.43
2018-03-14T04:18:19.548Z,9.23
2018-03-14T04:20:47.772Z,7.57
2018-03-14T04:23:16.788Z,9.17
2018-03-14T04:25:45.009Z,7.77
2018-03-14T04:28:13.264Z,9.40
2018-03-14T04:30:41.488Z,7.30
2018-03-14T04:33:10.480Z,7.17
2018-03-14T04:35:39.485Z,6.97
2018-03-14T04:38:08.468Z,6.83
2018-03-14T04:40:37.481Z,8.87
2018-03-14T04:43:05.711Z,12.53
2018-03-14T04:45:33.941Z,7.33
2018-03-14T04:48:02.161Z,6.03
2018-03-14T04:50:30.396Z,9.50
2018-03-14T04:52:58.924Z,8.53
2018-03-14T04:55:27.153Z,7.10
2018-03-14T04:57:55.381Z,6.53
2018-03-14T05:00:24.380Z,8.20
2018-03-14T05:02:53.368Z,7.63
2018-03-14T05:05:22.376Z,7.40
2018-03-14T05:07:50.601Z,11.43
2018-03-14T05:10:18.836Z,9.43
2018-03-14T05:12:47.060Z,8.07
2018-03-14T05:15:15.301Z,9.30
2018-03-14T05:17:43.532Z,10.90
2018-03-14T05:20:11.764Z,8.43
2018-03-14T05:22:39.993Z,6.43
2018-03-14T05:25:08.227Z,9.63
2018-03-14T05:27:36.440Z,7.13
2018-03-14T05:30:04.677Z,6.57
2018-03-14T05:32:32.904Z,8.77
2018-03-14T05:35:01.145Z,9.57
2018-03-14T05:37:30.132Z,9.67
2018-03-14T05:39:59.141Z,8.67
2018-03-14T05:42:27.371Z,7.43
2018-03-14T05:44:55.592Z,10.53
2018-03-14T05:47:23.836Z,8.13
2018-03-14T05:49:52.825Z,8.80
2018-03-14T05:52:21.829Z,9.90
2018-03-14T05:54:50.828Z,11.70
2018-03-14T05:57:19.830Z,7.77
2018-03-14T05:59:48.059Z,7.63
2018-03-14T06:02:16.294Z,8.97
2018-03-14T06:04:44.516Z,8.47
2018-03-14T06:07:12.755Z,12.67
2018-03-14T06:09:40.981Z,10.83
2018-03-14T06:12:09.988Z,8.17
2018-03-14T06:14:38.220Z,10.60
2018-03-14T06:17:06.448Z,6.47
2018-03-14T06:19:34.668Z,7.30
2018-03-14T06:22:02.905Z,13.13
2018-03-14T06:24:31.404Z,7.97
2018-03-14T06:26:59.633Z,7.33
2018-03-14T06:29:27.877Z,8.37
2018-03-14T06:31:56.120Z,8.30
2018-03-14T06:34:24.345Z,10.03
2018-03-14T06:36:52.588Z,8.63
2018-03-14T06:39:20.809Z,9.73
2018-03-14T06:41:49.046Z,8.33
2018-03-14T06:44:17.270Z,10.53
2018-03-14T06:46:45.517Z,14.73
2018-03-14T06:49:13.800Z,10.73
2018-03-14T06:51:42.045Z,10.73
2018-03-14T06:54:11.040Z,8.77
2018-03-14T06:56:40.025Z,10.03
2018-03-14T06:59:20.884Z,23.60
2018-03-14T07:02:01.168Z,13.93
2018-03-14T07:04:39.313Z,8.30
2018-03-14T07:07:07.569Z,8.00
2018-03-14T07:09:35.796Z,10.73
2018-03-14T07:12:04.017Z,6.33
2018-03-14T07:14:32.260Z,10.13
2018-03-14T07:17:01.248Z,8.23
2018-03-14T07:19:30.257Z,10.13
2018-03-14T07:21:58.477Z,9.07
2018-03-14T07:24:26.710Z,7.83
2018-03-14T07:26:54.940Z,8.90
2018-03-14T07:29:23.175Z,10.67
2018-03-14T07:31:51.389Z,8.07
2018-03-14T07:34:19.637Z,10.57
2018-03-14T07:36:47.868Z,10.90
2018-03-14T07:39:16.876Z,10.23
2018-03-14T07:41:45.106Z,11.57
2018-03-14T07:44:13.348Z,11.63
2018-03-14T07:46:41.572Z,7.90
2018-03-14T07:49:11.450Z,7.07
2018-03-14T07:51:39.676Z,8.40
2018-03-14T07:54:07.950Z,10.30
2018-03-14T07:56:36.184Z,11.40
2018-03-14T07:59:04.424Z,8.57
2018-03-14T08:01:32.645Z,8.37
2018-03-14T08:04:01.649Z,8.73
2018-03-14T08:06:30.657Z,8.13
2018-03-14T08:08:59.292Z,7.30
2018-03-14T08:11:27.507Z,9.93
2018-03-14T08:13:55.796Z,8.10
2018-03-14T08:16:23.976Z,7.53
2018-03-14T08:18:52.189Z,8.70
2018-03-14T08:21:20.435Z,8.73
2018-03-14T08:23:48.640Z,9.40
2018-03-14T08:26:16.881Z,8.20
2018-03-14T08:28:45.109Z,9.57
2018-03-14T08:31:14.115Z,9.70
2018-03-14T08:33:42.333Z,7.60
2018-03-14T08:36:10.572Z,11.17
2018-03-14T08:38:38.797Z,6.83
2018-03-14T08:41:07.033Z,10.37
2018-03-14T08:43:35.275Z,9.93
2018-03-14T08:46:04.281Z,7.50
2018-03-14T08:48:32.500Z,9.93
2018-03-14T08:51:00.732Z,9.07
2018-03-14T08:53:28.957Z,8.83
2018-03-14T08:55:57.200Z,11.60
2018-03-14T08:58:25.424Z,12.33
2018-03-14T09:00:53.988Z,8.03
2018-03-14T09:03:22.209Z,9.40
2018-03-14T09:05:50.448Z,6.40
2018-03-14T09:08:19.444Z,10.97
2018-03-14T09:10:48.449Z,8.43
2018-03-14T09:13:16.679Z,10.73
2018-03-14T09:15:44.973Z,8.37
2018-03-14T09:18:13.961Z,8.00
2018-03-14T09:20:42.940Z,7.43
2018-03-14T09:23:11.176Z,8.93
2018-03-14T09:25:39.392Z,6.07
2018-03-14T09:28:07.633Z,8.57
2018-03-14T09:30:35.860Z,9.97
2018-03-14T09:33:04.905Z,7.80
2018-03-14T09:35:33.309Z,8.33
2018-03-14T09:38:01.545Z,9.53
2018-03-14T09:40:29.773Z,8.17
2018-03-14T09:42:58.773Z,9.47
2018-03-14T09:45:27.765Z,8.07
2018-03-14T09:47:56.001Z,8.30
2018-03-14T09:50:24.228Z,10.63
2018-03-14T09:52:52.469Z,6.97
2018-03-14T09:55:21.461Z,9.60
2018-03-14T09:57:50.477Z,8.33
2018-03-14T10:00:18.697Z,8.50
2018-03-14T10:02:46.936Z,9.40
2018-03-14T10:05:15.161Z,9.03
2018-03-14T10:07:43.393Z,8.10
2018-03-14T10:10:11.638Z,7.17
2018-03-14T10:12:40.621Z,5.57
2018-03-14T10:15:09.612Z,4.30
2018-03-14T10:17:38.621Z,7.13
2018-03-14T10:20:06.846Z,11.90
2018-03-14T10:22:35.340Z,4.47
2018-03-14T10:25:05.148Z,7.47
2018-03-14T10:27:33.384Z,7.03
2018-03-14T10:30:01.610Z,7.07
2018-03-14T10:32:30.600Z,6.77
2018-03-14T10:34:59.883Z,6.63
2018-03-14T10:37:28.097Z,7.40
2018-03-14T10:39:56.341Z,8.53
2018-03-14T10:42:25.382Z,4.97
2018-03-14T10:44:53.569Z,9.47
2018-03-14T10:47:21.796Z,4.63
2018-03-14T10:49:50.797Z,6.33
2018-03-14T10:52:19.022Z,7.17
2018-03-14T10:54:47.264Z,5.53
2018-03-14T10:57:15.488Z,6.07
2018-03-14T10:59:44.496Z,6.87
2018-03-14T11:02:15.305Z,5.37
2018-03-14T11:04:43.787Z,6.73
2018-03-14T11:07:12.004Z,4.83
2018-03-14T11:09:40.236Z,6.30
2018-03-14T11:12:08.460Z,5.23
2018-03-14T11:14:36.696Z,6.80
2018-03-14T11:17:05.689Z,7.03
2018-03-14T11:19:34.701Z,7.67
2018-03-14T11:22:02.935Z,6.27
2018-03-14T11:24:31.168Z,7.03
2018-03-14T11:26:59.392Z,4.60
2018-03-14T11:29:28.402Z,8.47
2018-03-14T11:31:56.624Z,5.73
2018-03-14T11:34:24.866Z,4.40
2018-03-14T11:36:53.087Z,6.03
2018-03-14T11:39:21.332Z,6.17
2018-03-14T11:41:49.540Z,9.03
2018-03-14T11:44:17.759Z,4.13
2018-03-14T11:46:46.033Z,7.20
2018-03-14T11:49:14.260Z,10.03
2018-03-14T11:51:42.500Z,6.73
2018-03-14T11:54:10.728Z,9.97
2018-03-14T11:56:39.735Z,7.80
2018-03-14T11:59:07.965Z,7.00
2018-03-14T12:01:36.196Z,6.33
2018-03-14T12:04:04.421Z,7.63
2018-03-14T12:06:32.651Z,6.47
2018-03-14T12:09:00.884Z,5.87
2018-03-14T12:11:29.886Z,6.83
2018-03-14T12:13:58.869Z,11.70
2018-03-14T12:16:27.877Z,7.80
2018-03-14T12:18:56.103Z,7.73
2018-03-14T12:21:24.329Z,5.87
2018-03-14T12:23:52.556Z,7.47
2018-03-14T12:26:20.791Z,8.87
2018-03-14T12:28:49.002Z,6.80
2018-03-14T12:31:17.228Z,5.27
2018-03-14T12:33:45.447Z,5.33
2018-03-14T12:36:13.732Z,8.13
2018-03-14T12:38:41.950Z,7.07
2018-03-14T12:41:10.190Z,7.00
2018-03-14T12:43:39.188Z,9.80
2018-03-14T12:46:08.193Z,6.27
2018-03-14T12:48:36.408Z,5.50
2018-03-14T12:51:04.644Z,5.07
2018-03-14T12:53:32.874Z,7.90
2018-03-14T12:56:01.121Z,5.20
2018-03-14T12:58:29.341Z,4.90
2018-03-14T13:00:58.329Z,8.93
2018-03-14T13:03:27.334Z,5.97
2018-03-14T13:05:56.325Z,9.10
2018-03-14T13:08:25.330Z,5.50
2018-03-14T13:10:53.549Z,6.30
2018-03-14T13:13:21.782Z,6.00
2018-03-14T13:15:50.007Z,6.60
2018-03-14T13:18:18.236Z,5.07
2018-03-14T13:20:46.463Z,6.33
2018-03-14T13:23:14.692Z,8.20
2018-03-14T13:25:42.922Z,4.73
2018-03-14T13:28:11.973Z,6.17
2018-03-14T13:30:40.220Z,3.90
2018-03-14T13:33:08.501Z,6.17
2018-03-14T13:35:36.793Z,6.43
2018-03-14T13:38:05.019Z,8.33
2018-03-14T13:40:34.010Z,5.40
2018-03-14T13:43:03.012Z,8.03
2018-03-14T13:45:31.234Z,6.93
2018-03-14T13:47:59.476Z,6.07
2018-03-14T13:50:28.013Z,5.50
2018-03-14T13:52:56.244Z,5.57
2018-03-14T13:55:24.464Z,8.30
2018-03-14T13:57:53.469Z,5.20
2018-03-14T14:00:22.452Z,6.37
2018-03-14T14:02:51.453Z,8.07
2018-03-14T14:05:20.441Z,6.43
2018-03-14T14:07:49.453Z,8.23
2018-03-14T14:10:17.705Z,7.37
2018-03-14T14:12:46.692Z,5.37
2018-03-14T14:15:15.700Z,5.43
2018-03-14T14:17:43.916Z,7.87
2018-03-14T14:20:12.154Z,6.60
2018-03-14T14:22:40.378Z,7.80
2018-03-14T14:25:08.608Z,7.67
2018-03-14T14:27:36.864Z,7.10
2018-03-14T14:30:05.072Z,6.50
2018-03-14T14:32:33.284Z,9.70
2018-03-14T14:35:01.534Z,6.60
2018-03-14T14:37:29.757Z,7.53
2018-03-14T14:39:58.756Z,7.47
2018-03-14T14:42:26.982Z,7.77
2018-03-14T14:44:55.221Z,7.70
2018-03-14T14:47:23.441Z,5.47
2018-03-14T14:49:51.681Z,7.20
2018-03-14T14:52:19.907Z,6.80
2018-03-14T14:54:48.913Z,8.30
2018-03-14T14:57:17.134Z,9.77
2018-03-14T14:59:45.371Z,7.50
2018-03-14T15:02:13.593Z,6.57
2018-03-14T15:04:41.833Z,7.20
2018-03-14T15:07:10.060Z,9.17
2018-03-14T15:09:39.065Z,12.07
2018-03-14T15:12:07.288Z,14.93
2018-03-14T15:14:35.541Z,14.03
2018-03-14T15:17:03.773Z,12.53
2018-03-14T15:19:32.784Z,16.37
2018-03-14T15:22:01.021Z,25.20
2018-03-14T15:24:29.253Z,24.97
2018-03-14T15:26:57.500Z,26.23
2018-03-14T15:29:25.728Z,23.77
2018-03-14T15:31:53.974Z,22.33
2018-03-14T15:34:22.209Z,23.53
2018-03-14T15:36:51.228Z,25.37
2018-03-14T15:39:19.464Z,27.40
2018-03-14T15:41:48.474Z,26.77
2018-03-14T15:44:16.712Z,24.13
2018-03-14T15:46:44.957Z,24.27
2018-03-14T15:49:13.220Z,25.13
2018-03-14T15:51:41.457Z,21.73
2018-03-14T15:54:10.460Z,26.53
2018-03-14T15:56:39.475Z,22.80
2018-03-14T15:59:07.709Z,22.67
2018-03-14T16:01:35.953Z,24.37
2018-03-14T16:04:04.184Z,23.27
2018-03-14T16:06:32.437Z,17.53
2018-03-14T16:09:01.508Z,12.63
2018-03-14T16:11:29.725Z,16.83
2018-03-14T16:13:58.281Z,15.67
2018-03-14T16:16:27.292Z,16.27
2018-03-14T16:18:55.576Z,15.23
2018-03-14T16:21:23.856Z,15.03
2018-03-14T16:23:52.828Z,14.67
2018-03-14T16:26:21.076Z,13.63
2018-03-14T16:28:49.321Z,15.20
2018-03-14T16:31:17.578Z,15.17
2018-03-14T16:33:45.808Z,13.00
2018-03-14T16:36:14.805Z,12.63
2018-03-14T16:38:43.812Z,11.97
2018-03-14T16:41:12.032Z,13.43
2018-03-14T16:43:40.274Z,10.60
2018-03-14T16:46:08.516Z,9.57
2018-03-14T16:48:37.517Z,11.87
2018-03-14T16:51:05.745Z,13.13
2018-03-14T16:53:33.992Z,10.73
2018-03-14T16:56:02.216Z,9.90
2018-03-14T16:58:30.460Z,11.60
2018-03-14T17:00:59.481Z,10.50
2018-03-14T17:03:27.784Z,11.53
2018-03-14T17:05:56.390Z,11.67
2018-03-14T17:08:24.781Z,11.37
2018-03-14T17:10:53.008Z,12.23
2018-03-14T17:13:22.640Z,14.40
2018-03-14T17:15:51.634Z,15.87
2018-03-14T17:18:19.969Z,15.87
2018-03-14T17:20:49.298Z,17.13
2018-03-14T17:23:18.329Z,20.50
2018-03-14T17:25:47.310Z,17.67
2018-03-14T17:28:16.241Z,19.73
2018-03-14T17:30:45.018Z,18.60
2018-03-14T17:33:13.818Z,16.07
2018-03-14T17:35:42.241Z,16.57
2018-03-14T17:38:10.563Z,18.43
2018-03-14T17:40:39.543Z,18.50
2018-03-14T17:43:07.800Z,17.57
2018-03-14T17:45:36.030Z,17.93
2018-03-14T17:48:04.293Z,16.57
2018-03-14T17:50:33.304Z,16.73
2018-03-14T17:53:01.551Z,18.30
2018-03-14T17:55:30.850Z,17.40
2018-03-14T17:57:59.845Z,17.73
2018-03-14T18:00:29.276Z,17.17
2018-03-14T18:02:57.550Z,14.93
2018-03-14T18:05:25.796Z,15.23
2018-03-14T18:07:54.798Z,17.77
2018-03-14T18:10:23.048Z,19.13
2018-03-14T18:12:52.337Z,15.17
2018-03-14T18:15:20.581Z,15.40
2018-03-14T18:17:48.875Z,16.13
2018-03-14T18:20:20.586Z,14.67
2018-03-14T18:22:49.960Z,16.80
2018-03-14T18:25:18.965Z,12.87
2018-03-14T18:27:47.254Z,12.57
2018-03-14T18:30:16.245Z,13.30
2018-03-14T18:32:44.481Z,12.77
2018-03-14T18:35:12.728Z,13.13
2018-03-14T18:37:40.961Z,13.13
2018-03-14T18:40:09.208Z,12.03
2018-03-14T18:42:38.897Z,13.17
2018-03-14T18:45:07.597Z,14.80
2018-03-14T18:47:35.829Z,14.33
2018-03-14T18:50:04.084Z,11.20
2018-03-14T18:52:32.296Z,13.50
2018-03-14T18:55:00.537Z,11.77
2018-03-14T18:57:28.768Z,11.43
2018-03-14T18:59:57.776Z,12.30
2018-03-14T19:02:26.437Z,16.33
2018-03-14T19:04:55.361Z,11.37
2018-03-14T19:07:24.311Z,9.13
2018-03-14T19:09:53.313Z,9.37
2018-03-14T19:12:22.220Z,10.60
2018-03-14T19:14:51.270Z,10.93
2018-03-14T19:17:20.254Z,11.83
2018-03-14T19:19:49.075Z,12.13
2018-03-14T19:22:18.029Z,9.70
2018-03-14T19:24:46.397Z,10.07
2018-03-14T19:27:15.271Z,10.37
2018-03-14T19:29:50.317Z,12.60
2018-03-14T19:32:19.283Z,9.77
2018-03-14T19:34:48.848Z,10.60
2018-03-14T19:37:17.665Z,9.67
2018-03-14T19:39:46.456Z,9.03
2018-03-14T19:42:14.816Z,9.03
2018-03-14T19:44:43.812Z,9.53
2018-03-14T19:47:12.816Z,8.70
2018-03-14T19:49:41.045Z,12.27
2018-03-14T19:52:09.284Z,9.80
2018-03-14T19:54:37.528Z,12.93
2018-03-14T19:57:06.540Z,11.53
2018-03-14T19:59:34.780Z,11.00
2018-03-14T20:02:03.788Z,10.67
2018-03-14T20:04:32.795Z,11.63
2018-03-14T20:07:01.044Z,11.23
2018-03-14T20:09:30.032Z,11.67
2018-03-14T20:11:59.036Z,11.77
2018-03-14T20:14:28.045Z,14.97
2018-03-14T20:16:56.285Z,13.07
2018-03-14T20:19:25.320Z,12.17
2018-03-14T20:21:53.546Z,14.63
2018-03-14T20:24:21.769Z,13.87
2018-03-14T20:26:50.030Z,13.47
2018-03-14T20:29:18.275Z,14.27
2018-03-14T20:31:47.265Z,17.50
2018-03-14T20:34:16.293Z,15.33
2018-03-14T20:36:44.533Z,15.53
2018-03-14T20:39:13.613Z,16.57
2018-03-14T20:41:41.845Z,17.23
2018-03-14T20:44:10.096Z,16.63
2018-03-14T20:46:38.332Z,16.03
2018-03-14T20:49:06.576Z,15.30
2018-03-14T20:51:34.815Z,15.90
2018-03-14T20:54:03.081Z,17.43
2018-03-14T20:56:32.077Z,18.87
2018-03-14T20:59:00.341Z,18.23
2018-03-14T21:01:29.341Z,17.33
2018-03-14T21:03:58.349Z,17.67
2018-03-14T21:06:26.585Z,18.13
2018-03-14T21:08:55.640Z,18.77
2018-03-14T21:11:24.632Z,21.57
2018-03-14T21:13:52.881Z,18.77
2018-03-14T21:16:23.624Z,20.43
2018-03-14T21:18:51.874Z,17.43
2018-03-14T21:21:20.105Z,17.50
2018-03-14T21:23:48.352Z,20.27
2018-03-14T21:26:16.588Z,20.87
2018-03-14T21:28:45.616Z,19.03
2018-03-14T21:31:13.846Z,18.93
2018-03-14T21:33:42.856Z,20.53
2018-03-14T21:36:11.097Z,18.40
2018-03-14T21:38:39.369Z,20.63
2018-03-14T21:41:07.625Z,24.30
2018-03-14T21:43:35.828Z,21.47
2018-03-14T21:46:04.852Z,22.20
2018-03-14T21:48:33.080Z,18.53
2018-03-14T21:51:01.329Z,21.37
2018-03-14T21:53:29.562Z,17.60
2018-03-14T21:55:57.814Z,20.53
2018-03-14T21:58:26.820Z,18.73
2018-03-14T22:00:55.833Z,19.13
2018-03-14T22:03:24.070Z,22.00
2018-03-14T22:05:53.080Z,18.40
2018-03-14T22:08:21.336Z,19.97
2018-03-14T22:10:49.560Z,17.20
2018-03-14T22:13:17.814Z,16.23
2018-03-14T22:15:46.821Z,16.13
2018-03-14T22:18:15.048Z,15.20
2018-03-14T22:20:43.292Z,16.30
2018-03-14T22:23:11.525Z,16.23
2018-03-14T22:25:39.772Z,16.77
2018-03-14T22:28:08.768Z,15.80
2018-03-14T22:30:37.829Z,13.67
2018-03-14T22:33:06.029Z,16.60
2018-03-14T22:35:35.044Z,14.10
2018-03-14T22:38:03.284Z,15.40
2018-03-14T22:40:31.527Z,11.67
2018-03-14T22:42:59.764Z,15.53
2018-03-14T22:45:28.012Z,13.37
2018-03-14T22:47:57.004Z,12.33
2018-03-14T22:50:25.577Z,13.30
2018-03-14T22:52:54.544Z,13.13
2018-03-14T22:55:22.785Z,13.30
2018-03-14T22:57:51.056Z,11.63
2018-03-14T23:00:19.291Z,13.57
2018-03-14T23:02:47.529Z,12.83
2018-03-14T23:05:15.769Z,14.33
2018-03-14T23:07:44.772Z,13.73
2018-03-14T23:10:13.011Z,12.40
2018-03-14T23:12:42.020Z,12.23
2018-03-14T23:15:10.262Z,15.80
2018-03-14T23:17:38.516Z,11.87
2018-03-14T23:20:06.749Z,12.03
2018-03-14T23:22:34.993Z,10.10
2018-03-14T23:25:03.220Z,10.53
2018-03-14T23:27:31.467Z,12.87
2018-03-14T23:29:59.700Z,12.00
2018-03-14T23:32:27.937Z,11.70
2018-03-14T23:34:56.370Z,11.97
2018-03-14T23:37:24.612Z,10.77
2018-03-14T23:39:52.837Z,14.77
2018-03-14T23:42:21.856Z,13.63
2018-03-14T23:44:50.088Z,11.67
2018-03-14T23:47:19.100Z,15.73
2018-03-14T23:49:47.325Z,13.90
2018-03-14T23:52:15.679Z,13.87
2018-03-14T23:54:43.900Z,11.47
2018-03-14T23:57:12.925Z,13.50
2018-03-14T23:59:41.152Z,13.33
